createdAt,value
2019-04-11T00:01:49.698Z,81.60
2019-04-11T00:04:17.732Z,81.70
2019-04-11T00:06:47.866Z,81.80
2019-04-11T00:09:18.768Z,81.50
2019-04-11T00:11:48.694Z,81.70
2019-04-11T00:14:18.252Z,81.80
2019-04-11T00:16:47.815Z,82.30
2019-04-11T00:19:17.344Z,81.70
2019-04-11T00:21:46.995Z,81.70
2019-04-11T00:24:16.757Z,81.60
2019-04-11T00:26:46.593Z,82.40
2019-04-11T00:29:16.439Z,82.10
2019-04-11T00:31:46.826Z,82.00
2019-04-11T00:34:18.455Z,82.10
2019-04-11T00:36:48.539Z,81.60
2019-04-11T00:39:19.398Z,82.50
2019-04-11T00:41:50.198Z,83.20
2019-04-11T00:44:20.915Z,83.10
2019-04-11T00:46:50.931Z,82.90
2019-04-11T00:49:20.705Z,82.90
2019-04-11T00:51:50.337Z,83.40
2019-04-11T00:54:19.858Z,83.20
2019-04-11T00:56:50.552Z,83.40
2019-04-11T00:59:20.435Z,83.00
2019-04-11T01:01:50.084Z,82.80
2019-04-11T01:04:20.327Z,83.00
2019-04-11T01:06:50.147Z,82.90
2019-04-11T01:09:20.094Z,83.20
2019-04-11T01:11:50.105Z,83.30
2019-04-11T01:14:19.608Z,83.60
2019-04-11T01:16:50.940Z,83.60
2019-04-11T01:19:20.533Z,83.50
2019-04-11T01:21:50.945Z,83.60
2019-04-11T01:24:21.837Z,83.70
2019-04-11T01:26:51.820Z,83.60
2019-04-11T01:29:21.593Z,83.40
2019-04-11T01:31:55.583Z,83.20
2019-04-11T01:34:25.049Z,83.10
2019-04-11T01:36:55.384Z,83.30
2019-04-11T01:39:27.871Z,82.10
2019-04-11T01:41:58.653Z,82.60
2019-04-11T01:44:28.422Z,82.80
2019-04-11T01:46:58.298Z,81.90
2019-04-11T01:49:30.317Z,82.40
2019-04-11T01:52:02.259Z,83.20
2019-04-11T01:54:32.360Z,83.40
2019-04-11T01:57:01.910Z,83.70
2019-04-11T01:59:31.459Z,84.00
2019-04-11T02:02:05.645Z,84.20
2019-04-11T02:04:37.142Z,83.80
2019-04-11T02:07:08.223Z,83.90
2019-04-11T02:09:38.018Z,83.90
2019-04-11T02:12:07.885Z,84.30
2019-04-11T02:14:37.510Z,84.00
2019-04-11T02:17:08.250Z,83.90
2019-04-11T02:19:38.486Z,83.70
2019-04-11T02:22:13.673Z,84.00
2019-04-11T02:24:47.928Z,83.70
2019-04-11T02:27:19.487Z,83.80
2019-04-11T02:29:49.198Z,83.90
2019-04-11T02:32:21.262Z,84.20
2019-04-11T02:34:54.642Z,84.10
2019-04-11T02:37:24.014Z,84.30
2019-04-11T02:39:54.120Z,84.30
2019-04-11T02:42:25.567Z,84.40
2019-04-11T02:45:13.173Z,84.10
2019-04-11T02:47:32.477Z,84.20
2019-04-11T02:49:59.435Z,84.20
2019-04-11T02:52:31.111Z,83.70
2019-04-11T02:55:00.936Z,84.00
2019-04-11T02:57:32.149Z,83.90
2019-04-11T03:00:02.121Z,84.60
2019-04-11T03:02:32.751Z,84.30
2019-04-11T03:05:03.416Z,84.40
2019-04-11T03:07:34.205Z,84.90
2019-04-11T03:10:07.353Z,84.60
2019-04-11T03:12:38.254Z,84.50
2019-04-11T03:15:25.581Z,84.70
2019-04-11T03:17:43.849Z,84.10
2019-04-11T03:20:22.040Z,84.30
2019-04-11T03:22:44.745Z,84.30
2019-04-11T03:25:15.449Z,83.90
2019-04-11T03:27:45.695Z,84.30
2019-04-11T03:30:23.862Z,84.40
2019-04-11T03:33:47.023Z,84.40
2019-04-11T03:36:07.461Z,83.90
2019-04-11T03:38:12.526Z,83.60
2019-04-11T03:40:43.954Z,83.80
2019-04-11T03:43:10.766Z,83.70
2019-04-11T03:45:48.384Z,83.90
2019-04-11T03:48:10.115Z,83.70
2019-04-11T03:50:31.979Z,83.20
2019-04-11T03:53:02.217Z,83.70
2019-04-11T03:55:32.457Z,84.00
2019-04-11T03:58:03.824Z,84.50
2019-04-11T04:00:36.198Z,84.80
2019-04-11T04:03:06.196Z,84.60
2019-04-11T04:05:38.561Z,84.80
2019-04-11T04:08:08.769Z,85.00
2019-04-11T04:10:41.693Z,85.30
2019-04-11T04:13:16.217Z,85.20
2019-04-11T04:16:01.864Z,85.30
2019-04-11T04:18:19.112Z,85.10
2019-04-11T04:20:57.653Z,84.90
2019-04-11T04:23:29.617Z,85.10
2019-04-11T04:26:01.138Z,84.60
2019-04-11T04:28:32.156Z,84.60
2019-04-11T04:31:04.435Z,85.10
2019-04-11T04:33:36.248Z,85.50
2019-04-11T04:36:08.861Z,85.40
2019-04-11T04:38:39.700Z,84.90
2019-04-11T04:41:22.494Z,85.20
2019-04-11T04:43:43.728Z,85.40
2019-04-11T04:46:29.923Z,85.10
2019-04-11T04:48:47.744Z,85.20
2019-04-11T04:51:19.580Z,85.30
2019-04-11T04:53:49.901Z,85.40
2019-04-11T04:56:24.001Z,85.60
2019-04-11T04:58:51.065Z,86.00
2019-04-11T05:01:21.738Z,85.40
2019-04-11T05:03:51.856Z,85.60
2019-04-11T05:06:21.466Z,86.30
2019-04-11T05:08:51.378Z,86.30
2019-04-11T05:11:21.197Z,86.60
2019-04-11T05:13:51.827Z,86.00
2019-04-11T05:16:21.620Z,85.80
2019-04-11T05:18:51.213Z,85.70
2019-04-11T05:21:21.282Z,85.60
2019-04-11T05:23:59.961Z,85.30
2019-04-11T05:26:29.451Z,85.80
2019-04-11T05:28:58.915Z,86.10
2019-04-11T05:31:28.434Z,86.30
2019-04-11T05:33:57.970Z,86.10
2019-04-11T05:36:28.293Z,86.20
2019-04-11T05:38:58.260Z,86.60
2019-04-11T05:41:29.304Z,86.40
2019-04-11T05:44:03.411Z,86.20
2019-04-11T05:46:35.339Z,85.80
2019-04-11T05:49:09.292Z,85.10
2019-04-11T05:51:44.073Z,85.30
2019-04-11T05:54:12.146Z,84.90
2019-04-11T05:56:41.988Z,85.20
2019-04-11T05:59:17.266Z,84.90
2019-04-11T06:01:48.912Z,84.80
2019-04-11T06:04:23.336Z,84.60
2019-04-11T06:06:53.631Z,84.50
2019-04-11T06:09:31.314Z,84.60
2019-04-11T06:12:11.569Z,84.10
2019-04-11T06:14:47.076Z,83.80
2019-04-11T06:17:18.471Z,84.40
2019-04-11T06:19:53.549Z,82.70
2019-04-11T06:22:23.425Z,83.40
2019-04-11T06:25:11.327Z,83.50
2019-04-11T06:27:49.528Z,83.10
2019-04-11T06:30:28.298Z,82.40
2019-04-11T06:36:57.494Z,82.30
2019-04-11T06:39:31.563Z,83.40
2019-04-11T06:42:04.819Z,83.30
2019-04-11T06:44:37.658Z,82.30
2019-04-11T06:47:14.929Z,81.70
2019-04-11T06:49:53.512Z,83.20
2019-04-11T06:52:28.724Z,82.50
2019-04-11T06:55:05.097Z,82.90
2019-04-11T06:57:36.295Z,84.00
2019-04-11T07:00:10.426Z,82.70
2019-04-11T07:02:41.695Z,82.00
2019-04-11T07:05:14.016Z,82.20
2019-04-11T07:07:49.363Z,82.70
2019-04-11T07:10:20.260Z,81.90
2019-04-11T07:12:54.380Z,81.60
2019-04-11T07:15:25.127Z,81.40
2019-04-11T07:18:13.997Z,81.10
2019-04-11T07:20:52.362Z,81.90
2019-04-11T07:23:41.494Z,81.60
2019-04-11T07:26:13.445Z,80.80
2019-04-11T07:28:44.657Z,80.10
2019-04-11T07:31:28.068Z,80.30
2019-04-11T07:34:17.090Z,81.10
2019-04-11T07:37:04.906Z,80.90
2019-04-11T07:39:56.147Z,79.90
2019-04-11T07:42:41.176Z,80.40
2019-04-11T07:45:14.161Z,81.50
2019-04-11T07:47:48.567Z,82.10
2019-04-11T07:50:19.716Z,82.70
2019-04-11T07:52:51.622Z,81.10
2019-04-11T07:55:22.796Z,81.00
2019-04-11T07:57:54.655Z,81.00
2019-04-11T08:00:46.956Z,80.90
2019-04-11T08:03:34.235Z,80.20
2019-04-11T08:06:08.122Z,80.10
2019-04-11T08:08:45.435Z,79.40
2019-04-11T08:11:17.723Z,80.70
2019-04-11T08:13:53.120Z,80.90
2019-04-11T08:16:39.267Z,81.10
2019-04-11T08:19:10.441Z,80.30
2019-04-11T08:21:47.216Z,80.50
2019-04-11T08:24:34.927Z,80.10
2019-04-11T08:27:23.205Z,80.10
2019-04-11T08:29:54.769Z,79.30
2019-04-11T08:32:32.179Z,80.20
2019-04-11T08:35:10.158Z,80.00
2019-04-11T08:37:58.009Z,79.70
2019-04-11T08:40:45.719Z,79.10
2019-04-11T08:43:17.176Z,79.90
2019-04-11T08:45:58.234Z,79.80
2019-04-11T08:51:23.228Z,79.10
2019-04-11T08:54:01.467Z,79.90
2019-04-11T08:56:32.528Z,80.20
2019-04-11T08:59:13.464Z,80.00
2019-04-11T09:01:44.475Z,78.90
2019-04-11T09:04:32.408Z,78.60
2019-04-11T09:07:03.194Z,78.70
2019-04-11T09:09:51.535Z,77.70
2019-04-11T09:12:22.485Z,78.90
2019-04-11T09:15:00.276Z,79.40
2019-04-11T09:17:31.859Z,78.90
2019-04-11T09:20:05.738Z,79.30
2019-04-11T09:22:37.404Z,78.90
2019-04-11T09:25:10.783Z,78.10
2019-04-11T09:27:55.520Z,76.90
2019-04-11T09:30:28.293Z,76.70
2019-04-11T09:33:15.214Z,76.50
2019-04-11T09:35:59.662Z,76.40
2019-04-11T09:38:31.037Z,77.40
2019-04-11T09:41:05.975Z,77.30
2019-04-11T09:43:38.556Z,77.30
2019-04-11T09:46:19.497Z,77.50
2019-04-11T09:48:59.541Z,77.60
2019-04-11T09:51:47.782Z,78.30
2019-04-11T09:54:19.809Z,77.60
2019-04-11T09:57:07.781Z,77.80
2019-04-11T09:59:45.543Z,78.50
2019-04-11T10:02:54.195Z,78.60
2019-04-11T10:05:28.247Z,78.80
2019-04-11T10:08:02.411Z,78.00
2019-04-11T10:10:33.668Z,76.30
2019-04-11T10:13:16.892Z,76.10
2019-04-11T10:16:04.129Z,76.20
2019-04-11T10:18:44.396Z,74.60
2019-04-11T10:21:15.662Z,73.70
2019-04-11T10:23:49.690Z,73.40
2019-04-11T10:26:20.261Z,74.20
2019-04-11T10:28:54.437Z,74.20
2019-04-11T10:31:24.180Z,74.20
2019-04-11T10:33:55.542Z,74.30
2019-04-11T10:36:27.383Z,75.10
2019-04-11T10:39:07.547Z,75.60
2019-04-11T10:41:42.048Z,75.60
2019-04-11T10:44:13.907Z,76.00
2019-04-11T10:46:45.273Z,76.70
2019-04-11T10:49:20.540Z,76.20
2019-04-11T10:51:51.755Z,74.70
2019-04-11T10:54:21.853Z,73.90
2019-04-11T10:56:53.683Z,73.90
2019-04-11T10:59:26.807Z,74.80
2019-04-11T11:02:03.017Z,74.90
2019-04-11T11:04:34.795Z,74.80
2019-04-11T11:07:06.547Z,73.80
2019-04-11T11:09:38.797Z,72.80
2019-04-11T11:12:14.795Z,71.70
2019-04-11T11:15:01.063Z,71.00
2019-04-11T11:17:55.890Z,70.70
2019-04-11T11:20:22.257Z,72.00
2019-04-11T11:22:56.915Z,72.00
2019-04-11T11:25:48.477Z,71.60
2019-04-11T11:28:17.926Z,71.00
2019-04-11T11:31:05.726Z,73.10
2019-04-11T11:33:35.817Z,71.80
2019-04-11T11:36:25.711Z,72.00
2019-04-11T11:38:58.391Z,71.70
2019-04-11T11:41:46.705Z,71.80
2019-04-11T11:44:19.127Z,70.10
2019-04-11T11:47:06.837Z,70.30
2019-04-11T11:49:46.778Z,70.70
2019-04-11T11:52:11.104Z,69.70
2019-04-11T11:54:43.885Z,70.10
2019-04-11T11:57:15.450Z,69.70
2019-04-11T11:59:46.505Z,68.30
2019-04-11T12:02:20.893Z,67.40
2019-04-11T12:05:14.657Z,67.90
2019-04-11T12:07:45.244Z,68.20
2019-04-11T12:10:22.559Z,68.40
2019-04-11T12:13:12.837Z,69.00
2019-04-11T12:15:49.208Z,67.80
2019-04-11T12:18:29.370Z,65.60
2019-04-11T12:21:06.344Z,64.40
2019-04-11T12:24:02.181Z,65.40
2019-04-11T12:26:30.474Z,65.50
2019-04-11T12:29:14.295Z,67.30
2019-04-11T12:31:48.527Z,67.20
2019-04-11T12:34:38.644Z,67.40
2019-04-11T12:37:10.575Z,67.40
2019-04-11T12:39:58.509Z,69.30
2019-04-11T12:42:29.650Z,70.20
2019-04-11T12:45:12.648Z,70.10
2019-04-11T12:47:43.008Z,69.40
2019-04-11T12:50:29.165Z,69.30
2019-04-11T12:53:04.088Z,69.20
2019-04-11T12:55:50.479Z,68.50
2019-04-11T12:58:33.394Z,69.20
2019-04-11T13:01:21.236Z,69.20
2019-04-11T13:04:07.449Z,68.70
2019-04-11T13:06:41.408Z,68.00
2019-04-11T13:09:18.632Z,69.10
2019-04-11T13:11:49.919Z,68.80
2019-04-11T13:14:36.153Z,68.50
2019-04-11T13:17:13.428Z,68.70
2019-04-11T13:19:47.115Z,67.30
2019-04-11T13:22:18.373Z,66.40
2019-04-11T13:24:49.442Z,66.70
2019-04-11T13:27:20.609Z,66.50
2019-04-11T13:29:51.854Z,66.10
2019-04-11T13:32:35.148Z,65.70
2019-04-11T13:35:08.417Z,65.10
2019-04-11T13:37:55.489Z,64.80
2019-04-11T13:40:38.905Z,64.70
2019-04-11T13:43:28.404Z,65.10
2019-04-11T13:46:05.353Z,64.90
2019-04-11T13:48:48.414Z,64.50
2019-04-11T13:51:25.828Z,64.80
2019-04-11T13:54:13.205Z,64.10
2019-04-11T13:57:00.229Z,64.80
2019-04-11T13:59:34.212Z,65.50
2019-04-11T14:02:07.428Z,64.80
2019-04-11T14:04:54.601Z,65.10
2019-04-11T14:07:26.106Z,64.00
2019-04-11T14:09:56.711Z,64.40
2019-04-11T14:12:28.141Z,64.20
2019-04-11T14:14:59.695Z,65.30
2019-04-11T14:17:36.601Z,63.20
2019-04-11T14:20:11.818Z,63.20
2019-04-11T14:22:58.592Z,63.40
2019-04-11T14:25:46.172Z,63.00
2019-04-11T14:28:17.631Z,62.00
2019-04-11T14:30:52.320Z,61.70
2019-04-11T14:33:40.994Z,61.40
2019-04-11T14:36:33.564Z,60.70
2019-04-11T14:39:02.126Z,62.20
2019-04-11T14:41:46.926Z,59.90
2019-04-11T14:44:17.659Z,59.90
2019-04-11T14:46:51.887Z,59.80
2019-04-11T14:49:21.290Z,58.80
2019-04-11T14:52:10.668Z,57.90
2019-04-11T14:54:41.809Z,57.40
2019-04-11T14:57:24.048Z,58.50
2019-04-11T14:59:58.423Z,59.20
2019-04-11T15:02:29.625Z,58.70
2019-04-11T15:05:13.619Z,59.00
2019-04-11T15:07:43.707Z,59.10
2019-04-11T15:10:16.918Z,58.70
2019-04-11T15:12:48.141Z,57.80
2019-04-11T15:15:24.768Z,57.70
2019-04-11T15:17:56.085Z,57.80
2019-04-11T15:20:33.777Z,58.50
2019-04-11T15:23:07.617Z,58.20
2019-04-11T15:25:40.305Z,59.20
2019-04-11T15:28:48.603Z,59.70
2019-04-11T15:34:37.287Z,60.40
2019-04-11T15:37:08.467Z,60.60
2019-04-11T15:39:44.645Z,60.60
2019-04-11T15:42:12.497Z,61.60
2019-04-11T15:44:55.570Z,62.40
2019-04-11T15:47:25.021Z,61.60
2019-04-11T15:50:12.397Z,63.20
2019-04-11T15:52:43.646Z,63.10
2019-04-11T15:55:28.014Z,64.60
2019-04-11T15:57:58.393Z,66.00
2019-04-11T16:00:43.605Z,67.80
2019-04-11T16:03:12.807Z,69.10
2019-04-11T16:06:02.104Z,71.00
2019-04-11T16:08:38.866Z,71.20
2019-04-11T16:11:12.125Z,69.90
2019-04-11T16:13:51.149Z,69.50
2019-04-11T16:16:22.266Z,70.00
2019-04-11T16:19:09.796Z,71.70
2019-04-11T16:21:57.092Z,72.30
2019-04-11T16:24:31.022Z,73.00
2019-04-11T16:27:17.191Z,72.40
2019-04-11T16:30:07.921Z,72.90
2019-04-11T16:32:41.691Z,72.80
2019-04-11T16:35:26.080Z,72.60
2019-04-11T16:38:00.932Z,73.00
2019-04-11T16:40:48.241Z,73.60
2019-04-11T16:43:17.794Z,72.40
2019-04-11T16:46:05.360Z,71.70
2019-04-11T16:48:34.842Z,72.40
2019-04-11T16:51:05.849Z,73.10
2019-04-11T16:53:35.717Z,72.60
2019-04-11T16:56:06.489Z,73.80
2019-04-11T16:58:36.162Z,73.50
2019-04-11T17:01:06.584Z,73.90
2019-04-11T17:03:36.450Z,77.00
2019-04-11T17:06:25.908Z,75.80
2019-04-11T17:08:57.026Z,75.70
2019-04-11T17:11:27.591Z,76.30
2019-04-11T17:13:57.903Z,76.50
2019-04-11T17:16:29.951Z,76.60
2019-04-11T17:18:58.897Z,76.50
2019-04-11T17:21:28.493Z,74.80
2019-04-11T17:23:58.116Z,75.30
2019-04-11T17:26:27.726Z,74.70
2019-04-11T17:28:57.283Z,74.50
2019-04-11T17:31:26.915Z,73.90
2019-04-11T17:33:56.866Z,75.40
2019-04-11T17:36:27.753Z,77.10
2019-04-11T17:38:57.359Z,75.70
2019-04-11T17:41:26.883Z,73.60
2019-04-11T17:43:57.604Z,73.40
2019-04-11T17:46:27.528Z,73.30
2019-04-11T17:48:57.376Z,73.10
2019-04-11T17:51:26.942Z,74.00
2019-04-11T17:53:56.549Z,75.10
2019-04-11T17:56:26.025Z,74.90
2019-04-11T17:58:58.125Z,74.60
2019-04-11T18:01:27.870Z,74.20
2019-04-11T18:03:57.443Z,75.40
2019-04-11T18:06:26.993Z,75.30
2019-04-11T18:08:56.610Z,73.90
2019-04-11T18:11:44.618Z,73.70
2019-04-11T18:14:14.378Z,73.20
2019-04-11T18:16:43.939Z,73.30
2019-04-11T18:19:13.419Z,73.70
2019-04-11T18:21:43.118Z,73.50
2019-04-11T18:24:13.778Z,73.50
2019-04-11T18:26:43.442Z,73.00
2019-04-11T18:29:12.971Z,73.90
2019-04-11T18:31:42.589Z,74.50
2019-04-11T18:34:12.143Z,74.70
2019-04-11T18:36:41.845Z,74.10
2019-04-11T18:39:11.416Z,73.70
2019-04-11T18:41:41.583Z,73.10
2019-04-11T18:44:11.193Z,72.90
2019-04-11T18:46:40.703Z,74.10
2019-04-11T18:49:10.317Z,73.70
2019-04-11T18:51:39.891Z,73.70
2019-04-11T18:54:09.498Z,74.30
2019-04-11T18:56:39.094Z,73.90
2019-04-11T18:59:08.574Z,74.20
2019-04-11T19:01:39.872Z,74.40
2019-04-11T19:04:11.743Z,75.30
2019-04-11T19:06:43.076Z,75.80
2019-04-11T19:09:14.208Z,75.00
2019-04-11T19:11:47.039Z,74.90
2019-04-11T19:14:16.833Z,75.00
2019-04-11T19:16:46.846Z,75.30
2019-04-11T19:19:18.582Z,75.90
2019-04-11T19:21:50.803Z,76.80
2019-04-11T19:24:19.194Z,77.00
2019-04-11T19:26:50.366Z,77.20
2019-04-11T19:29:19.873Z,76.80
2019-04-11T19:31:50.136Z,76.30
2019-04-11T19:34:19.567Z,76.50
2019-04-11T19:36:48.988Z,76.50
2019-04-11T19:39:19.312Z,77.00
2019-04-11T19:41:48.939Z,77.10
2019-04-11T19:44:19.394Z,76.50
2019-04-11T19:46:51.004Z,77.20
2019-04-11T19:49:20.893Z,77.70
2019-04-11T19:51:50.898Z,77.90
2019-04-11T19:54:20.726Z,78.10
2019-04-11T19:56:51.824Z,78.60
2019-04-11T19:59:21.468Z,78.90
2019-04-11T20:01:53.184Z,78.80
2019-04-11T20:04:24.001Z,79.00
2019-04-11T20:06:53.341Z,78.80
2019-04-11T20:09:23.230Z,78.60
2019-04-11T20:11:52.856Z,78.50
2019-04-11T20:14:23.970Z,78.40
2019-04-11T20:16:53.579Z,79.50
2019-04-11T20:19:27.137Z,79.30
2019-04-11T20:21:54.258Z,80.20
2019-04-11T20:24:23.763Z,79.10
2019-04-11T20:26:53.279Z,78.60
2019-04-11T20:29:22.790Z,77.90
2019-04-11T20:31:52.415Z,78.30
2019-04-11T20:34:27.277Z,78.50
2019-04-11T20:36:53.114Z,79.00
2019-04-11T20:39:22.652Z,78.30
2019-04-11T20:41:53.522Z,78.10
2019-04-11T20:44:27.211Z,78.60
2019-04-11T20:46:54.667Z,78.70
2019-04-11T20:49:24.230Z,78.90
2019-04-11T20:51:53.832Z,78.80
2019-04-11T20:54:23.332Z,79.90
2019-04-11T20:56:52.756Z,80.80
2019-04-11T20:59:33.711Z,80.60
2019-04-11T21:01:53.635Z,80.80
2019-04-11T21:04:23.468Z,81.20
2019-04-11T21:06:52.951Z,81.30
2019-04-11T21:09:22.478Z,81.40
2019-04-11T21:11:53.188Z,81.80
2019-04-11T21:14:23.007Z,82.60
2019-04-11T21:16:52.592Z,82.00
2019-04-11T21:19:26.573Z,80.30
2019-04-11T21:21:58.214Z,81.80
2019-04-11T21:24:30.587Z,82.00
2019-04-11T21:27:02.756Z,82.40
2019-04-11T21:29:47.685Z,83.20
2019-04-11T21:32:19.687Z,83.20
2019-04-11T21:35:09.914Z,83.20
2019-04-11T21:37:41.111Z,83.30
2019-04-11T21:40:10.720Z,83.20
2019-04-11T21:42:40.174Z,83.20
2019-04-11T21:45:09.984Z,83.40
2019-04-11T21:47:40.143Z,83.40
2019-04-11T21:50:11.163Z,83.50
2019-04-11T21:52:43.274Z,83.40
2019-04-11T21:55:15.129Z,82.70
2019-04-11T21:57:42.936Z,83.20
2019-04-11T22:00:22.416Z,82.60
2019-04-11T22:02:55.039Z,81.60
2019-04-11T22:05:28.995Z,81.30
2019-04-11T22:07:56.257Z,81.90
2019-04-11T22:10:26.569Z,81.90
2019-04-11T22:12:57.431Z,82.00
2019-04-11T22:15:27.683Z,82.40
2019-04-11T22:17:57.230Z,82.90
2019-04-11T22:20:26.774Z,83.30
2019-04-11T22:22:56.226Z,83.90
2019-04-11T22:25:25.756Z,83.90
2019-04-11T22:27:56.948Z,84.60
2019-04-11T22:30:26.544Z,83.70
2019-04-11T22:33:03.740Z,84.30
2019-04-11T22:35:33.126Z,83.60
2019-04-11T22:38:03.669Z,83.50
2019-04-11T22:40:33.064Z,83.20
2019-04-11T22:43:02.675Z,83.00
2019-04-11T22:45:32.165Z,83.20
2019-04-11T22:48:01.610Z,83.20
2019-04-11T22:50:31.145Z,84.00
2019-04-11T22:53:00.528Z,84.20
2019-04-11T22:55:31.683Z,84.00
2019-04-11T22:58:01.495Z,83.60
2019-04-11T23:00:31.086Z,83.20
2019-04-11T23:03:11.075Z,83.10
2019-04-11T23:05:40.601Z,82.80
2019-04-11T23:08:10.149Z,83.20
2019-04-11T23:10:39.628Z,83.60
2019-04-11T23:13:09.224Z,84.10
2019-04-11T23:15:38.716Z,83.90
2019-04-11T23:18:11.818Z,84.00
2019-04-11T23:20:44.059Z,84.00
2019-04-11T23:23:14.131Z,84.60
2019-04-11T23:25:44.059Z,84.40
2019-04-11T23:28:15.772Z,84.40
2019-04-11T23:30:46.906Z,84.10
2019-04-11T23:33:15.668Z,84.30
2019-04-11T23:35:45.154Z,83.60
2019-04-11T23:38:14.706Z,84.10
2019-04-11T23:40:44.145Z,84.30
2019-04-11T23:43:15.338Z,84.30
2019-04-11T23:45:50.965Z,83.60
2019-04-11T23:48:18.482Z,83.80
2019-04-11T23:50:48.071Z,83.70
2019-04-11T23:53:17.631Z,83.60
2019-04-11T23:55:47.163Z,83.80
2019-04-11T23:58:16.647Z,84.10
